sensor_id;sensor_type;location;lat;lon;timestamp;pressure;altitude;pressure_sealevel;temperature;humidity
56142;BME280;42018;48.588;10.836;2024-03-08T00:00:09;96716.50;;;2.97;72.20
56142;BME280;42018;48.588;10.836;2024-03-08T00:02:58;96707.84;;;3.81;69.52
56142;BME280;42018;48.588;10.836;2024-03-08T00:05:44;96701.69;;;3.88;68.88
56142;BME280;42018;48.588;10.836;2024-03-08T00:08:29;96694.69;;;4.12;68.10
56142;BME280;42018;48.588;10.836;2024-03-08T00:11:16;96696.44;;;3.88;68.00
56142;BME280;42018;48.588;10.836;2024-03-08T00:14:01;96696.81;;;3.61;69.51
56142;BME280;42018;48.588;10.836;2024-03-08T00:16:47;96699.59;;;3.48;70.63
56142;BME280;42018;48.588;10.836;2024-03-08T00:19:33;96696.56;;;3.81;69.10
56142;BME280;42018;48.588;10.836;2024-03-08T00:22:18;96684.44;;;4.10;67.73
56142;BME280;42018;48.588;10.836;2024-03-08T00:25:05;96688.53;;;4.06;67.91
56142;BME280;42018;48.588;10.836;2024-03-08T00:27:53;96685.13;;;4.17;67.18
56142;BME280;42018;48.588;10.836;2024-03-08T00:30:41;96678.13;;;3.99;67.40
56142;BME280;42018;48.588;10.836;2024-03-08T00:33:28;96682.53;;;3.27;70.92
56142;BME280;42018;48.588;10.836;2024-03-08T00:36:13;96671.56;;;3.67;69.60
56142;BME280;42018;48.588;10.836;2024-03-08T00:38:58;96671.19;;;3.63;68.79
56142;BME280;42018;48.588;10.836;2024-03-08T00:41:46;96669.81;;;3.60;68.33
56142;BME280;42018;48.588;10.836;2024-03-08T00:44:31;96661.88;;;3.67;68.80
56142;BME280;42018;48.588;10.836;2024-03-08T00:47:17;96651.44;;;3.49;69.07
56142;BME280;42018;48.588;10.836;2024-03-08T00:50:03;96653.72;;;3.45;69.87
56142;BME280;42018;48.588;10.836;2024-03-08T00:52:49;96654.97;;;3.54;69.75
56142;BME280;42018;48.588;10.836;2024-03-08T00:55:35;96650.88;;;4.00;67.54
56142;BME280;42018;48.588;10.836;2024-03-08T00:58:20;96655.88;;;3.00;71.09
56142;BME280;42018;48.588;10.836;2024-03-08T01:01:06;96645.28;;;3.55;69.55
56142;BME280;42018;48.588;10.836;2024-03-08T01:03:52;96644.50;;;3.24;70.40
56142;BME280;42018;48.588;10.836;2024-03-08T01:06:37;96646.16;;;3.67;68.98
56142;BME280;42018;48.588;10.836;2024-03-08T01:09:26;96648.97;;;3.96;67.88
56142;BME280;42018;48.588;10.836;2024-03-08T01:12:12;96640.88;;;4.09;67.15
56142;BME280;42018;48.588;10.836;2024-03-08T01:14:57;96637.94;;;4.17;66.70
56142;BME280;42018;48.588;10.836;2024-03-08T01:17:43;96639.84;;;4.10;66.47
56142;BME280;42018;48.588;10.836;2024-03-08T01:20:29;96629.84;;;4.30;65.66
56142;BME280;42018;48.588;10.836;2024-03-08T01:23:15;96626.88;;;4.39;65.46
56142;BME280;42018;48.588;10.836;2024-03-08T01:26:00;96623.09;;;3.99;66.59
56142;BME280;42018;48.588;10.836;2024-03-08T01:28:47;96625.03;;;4.04;66.59
56142;BME280;42018;48.588;10.836;2024-03-08T01:31:33;96624.00;;;4.05;66.42
56142;BME280;42018;48.588;10.836;2024-03-08T01:34:18;96619.00;;;4.39;65.24
56142;BME280;42018;48.588;10.836;2024-03-08T01:37:04;96614.34;;;4.52;64.51
56142;BME280;42018;48.588;10.836;2024-03-08T01:39:50;96619.69;;;4.57;64.65
56142;BME280;42018;48.588;10.836;2024-03-08T01:42:35;96619.34;;;4.42;65.06
56142;BME280;42018;48.588;10.836;2024-03-08T01:45:22;96608.16;;;4.59;64.04
56142;BME280;42018;48.588;10.836;2024-03-08T01:48:08;96610.09;;;4.63;63.91
56142;BME280;42018;48.588;10.836;2024-03-08T01:50:54;96605.19;;;4.67;63.62
56142;BME280;42018;48.588;10.836;2024-03-08T01:53:40;96598.81;;;4.63;63.83
56142;BME280;42018;48.588;10.836;2024-03-08T01:56:28;96605.09;;;4.50;63.28
56142;BME280;42018;48.588;10.836;2024-03-08T01:59:14;96601.88;;;4.48;63.82
56142;BME280;42018;48.588;10.836;2024-03-08T02:02:01;96595.25;;;4.57;64.11
56142;BME280;42018;48.588;10.836;2024-03-08T02:04:48;96592.88;;;4.55;63.32
56142;BME280;42018;48.588;10.836;2024-03-08T02:07:38;96586.56;;;4.68;62.74
56142;BME280;42018;48.588;10.836;2024-03-08T02:10:23;96583.72;;;4.58;63.00
56142;BME280;42018;48.588;10.836;2024-03-08T02:13:09;96586.16;;;3.77;65.35
56142;BME280;42018;48.588;10.836;2024-03-08T02:15:59;96571.34;;;4.18;64.78
56142;BME280;42018;48.588;10.836;2024-03-08T02:18:45;96573.50;;;3.98;65.24
56142;BME280;42018;48.588;10.836;2024-03-08T02:21:31;96571.34;;;4.18;64.55
56142;BME280;42018;48.588;10.836;2024-03-08T02:24:16;96566.09;;;4.18;64.89
56142;BME280;42018;48.588;10.836;2024-03-08T02:27:02;96560.84;;;4.18;65.12
56142;BME280;42018;48.588;10.836;2024-03-08T02:29:48;96555.03;;;4.04;65.48
56142;BME280;42018;48.588;10.836;2024-03-08T02:32:33;96561.44;;;3.31;67.94
56142;BME280;42018;48.588;10.836;2024-03-08T02:35:19;96555.59;;;2.51;72.07
56142;BME280;42018;48.588;10.836;2024-03-08T02:38:05;96556.69;;;2.61;71.71
56142;BME280;42018;48.588;10.836;2024-03-08T02:40:52;96557.53;;;2.92;70.97
56142;BME280;42018;48.588;10.836;2024-03-08T02:43:38;96555.59;;;3.18;68.89
56142;BME280;42018;48.588;10.836;2024-03-08T02:46:23;96552.72;;;3.49;68.18
56142;BME280;42018;48.588;10.836;2024-03-08T02:49:09;96552.44;;;3.27;68.79
56142;BME280;42018;48.588;10.836;2024-03-08T02:51:56;96552.81;;;3.43;68.50
56142;BME280;42018;48.588;10.836;2024-03-08T02:54:42;96556.97;;;3.20;68.51
56142;BME280;42018;48.588;10.836;2024-03-08T02:57:28;96546.28;;;3.33;67.54
56142;BME280;42018;48.588;10.836;2024-03-08T03:00:14;96550.25;;;3.24;67.96
56142;BME280;42018;48.588;10.836;2024-03-08T03:03:01;96548.34;;;3.31;68.49
56142;BME280;42018;48.588;10.836;2024-03-08T03:05:48;96539.09;;;3.29;67.84
56142;BME280;42018;48.588;10.836;2024-03-08T03:08:35;96546.16;;;3.70;66.74
56142;BME280;42018;48.588;10.836;2024-03-08T03:11:20;96541.34;;;3.67;67.09
56142;BME280;42018;48.588;10.836;2024-03-08T03:14:07;96534.97;;;3.98;66.36
56142;BME280;42018;48.588;10.836;2024-03-08T03:16:53;96544.91;;;4.08;65.37
56142;BME280;42018;48.588;10.836;2024-03-08T03:19:42;96533.50;;;4.14;64.94
56142;BME280;42018;48.588;10.836;2024-03-08T03:22:28;96527.91;;;4.22;64.53
56142;BME280;42018;48.588;10.836;2024-03-08T03:25:15;96527.78;;;4.29;64.05
56142;BME280;42018;48.588;10.836;2024-03-08T03:28:08;96529.03;;;4.38;63.28
56142;BME280;42018;48.588;10.836;2024-03-08T03:30:56;96528.03;;;4.04;64.32
56142;BME280;42018;48.588;10.836;2024-03-08T03:33:44;96524.28;;;4.23;63.99
56142;BME280;42018;48.588;10.836;2024-03-08T03:36:30;96526.75;;;4.30;63.51
56142;BME280;42018;48.588;10.836;2024-03-08T03:39:15;96531.31;;;4.35;63.22
56142;BME280;42018;48.588;10.836;2024-03-08T03:42:01;96519.03;;;4.12;64.23
56142;BME280;42018;48.588;10.836;2024-03-08T03:44:48;96521.66;;;4.23;64.12
56142;BME280;42018;48.588;10.836;2024-03-08T03:47:33;96522.44;;;4.12;64.17
56142;BME280;42018;48.588;10.836;2024-03-08T03:50:19;96514.91;;;4.16;63.94
56142;BME280;42018;48.588;10.836;2024-03-08T03:53:05;96507.63;;;3.94;64.73
56142;BME280;42018;48.588;10.836;2024-03-08T03:55:53;96505.59;;;3.84;65.27
56142;BME280;42018;48.588;10.836;2024-03-08T03:58:39;96509.56;;;4.11;64.79
56142;BME280;42018;48.588;10.836;2024-03-08T04:01:25;96509.31;;;4.12;64.08
56142;BME280;42018;48.588;10.836;2024-03-08T04:04:10;96502.75;;;3.74;65.60
56142;BME280;42018;48.588;10.836;2024-03-08T04:06:57;96501.13;;;3.97;64.73
56142;BME280;42018;48.588;10.836;2024-03-08T04:09:46;96495.44;;;4.00;64.16
56142;BME280;42018;48.588;10.836;2024-03-08T04:12:32;96506.16;;;4.10;64.30
56142;BME280;42018;48.588;10.836;2024-03-08T04:15:18;96497.25;;;4.11;63.77
56142;BME280;42018;48.588;10.836;2024-03-08T04:18:04;96505.81;;;4.06;64.13
56142;BME280;42018;48.588;10.836;2024-03-08T04:20:49;96503.97;;;4.07;63.96
56142;BME280;42018;48.588;10.836;2024-03-08T04:23:35;96497.81;;;4.01;64.08
56142;BME280;42018;48.588;10.836;2024-03-08T04:26:21;96503.66;;;4.03;64.03
56142;BME280;42018;48.588;10.836;2024-03-08T04:29:06;96502.94;;;4.08;63.73
56142;BME280;42018;48.588;10.836;2024-03-08T04:31:54;96503.53;;;3.98;63.35
56142;BME280;42018;48.588;10.836;2024-03-08T04:34:40;96510.72;;;4.03;63.43
56142;BME280;42018;48.588;10.836;2024-03-08T04:37:26;96506.03;;;4.05;63.36
56142;BME280;42018;48.588;10.836;2024-03-08T04:40:11;96502.59;;;4.04;62.97
56142;BME280;42018;48.588;10.836;2024-03-08T04:42:57;96507.06;;;4.04;62.88
56142;BME280;42018;48.588;10.836;2024-03-08T04:45:44;96505.22;;;4.04;63.32
56142;BME280;42018;48.588;10.836;2024-03-08T04:48:29;96500.22;;;4.03;63.37
56142;BME280;42018;48.588;10.836;2024-03-08T04:51:15;96501.91;;;4.09;63.44
56142;BME280;42018;48.588;10.836;2024-03-08T04:54:01;96504.09;;;4.12;63.48
56142;BME280;42018;48.588;10.836;2024-03-08T04:56:46;96501.47;;;4.12;63.59
56142;BME280;42018;48.588;10.836;2024-03-08T04:59:32;96498.38;;;4.15;63.65
56142;BME280;42018;48.588;10.836;2024-03-08T05:02:17;96496.91;;;3.84;64.70
56142;BME280;42018;48.588;10.836;2024-03-08T05:05:03;96496.44;;;3.52;66.38
56142;BME280;42018;48.588;10.836;2024-03-08T05:07:51;96497.13;;;3.59;66.87
56142;BME280;42018;48.588;10.836;2024-03-08T05:10:37;96497.38;;;3.04;68.69
56142;BME280;42018;48.588;10.836;2024-03-08T05:13:22;96493.22;;;3.26;69.25
56142;BME280;42018;48.588;10.836;2024-03-08T05:16:08;96490.25;;;3.23;69.08
56142;BME280;42018;48.588;10.836;2024-03-08T05:18:54;96491.78;;;3.42;68.09
56142;BME280;42018;48.588;10.836;2024-03-08T05:21:39;96486.03;;;3.10;69.69
56142;BME280;42018;48.588;10.836;2024-03-08T05:24:25;96482.34;;;2.69;71.57
56142;BME280;42018;48.588;10.836;2024-03-08T05:27:10;96480.44;;;2.09;74.35
56142;BME280;42018;48.588;10.836;2024-03-08T05:29:56;96485.00;;;2.81;71.70
56142;BME280;42018;48.588;10.836;2024-03-08T05:32:42;96477.22;;;3.04;71.01
56142;BME280;42018;48.588;10.836;2024-03-08T05:35:29;96468.63;;;3.16;69.93
56142;BME280;42018;48.588;10.836;2024-03-08T05:38:15;96472.28;;;2.84;71.06
56142;BME280;42018;48.588;10.836;2024-03-08T05:41:01;96471.56;;;3.07;70.38
56142;BME280;42018;48.588;10.836;2024-03-08T05:43:46;96467.81;;;3.15;70.36
56142;BME280;42018;48.588;10.836;2024-03-08T05:46:32;96469.66;;;3.26;70.45
56142;BME280;42018;48.588;10.836;2024-03-08T05:49:17;96462.53;;;3.45;69.63
56142;BME280;42018;48.588;10.836;2024-03-08T05:52:03;96465.00;;;2.86;71.79
56142;BME280;42018;48.588;10.836;2024-03-08T05:54:49;96468.75;;;3.32;70.04
56142;BME280;42018;48.588;10.836;2024-03-08T05:57:35;96464.63;;;3.13;70.40
56142;BME280;42018;48.588;10.836;2024-03-08T06:00:25;96465.78;;;3.29;70.09
56142;BME280;42018;48.588;10.836;2024-03-08T06:03:11;96472.75;;;3.47;69.38
56142;BME280;42018;48.588;10.836;2024-03-08T06:05:57;96470.38;;;3.57;69.07
56142;BME280;42018;48.588;10.836;2024-03-08T06:08:42;96464.34;;;3.56;69.06
56142;BME280;42018;48.588;10.836;2024-03-08T06:11:28;96465.94;;;3.57;68.83
56142;BME280;42018;48.588;10.836;2024-03-08T06:14:15;96459.69;;;3.70;68.82
56142;BME280;42018;48.588;10.836;2024-03-08T06:17:04;96467.41;;;3.53;69.25
56142;BME280;42018;48.588;10.836;2024-03-08T06:19:52;96472.53;;;2.95;71.02
56142;BME280;42018;48.588;10.836;2024-03-08T06:22:39;96470.69;;;3.25;70.15
56142;BME280;42018;48.588;10.836;2024-03-08T06:25:29;96465.94;;;3.57;69.24
56142;BME280;42018;48.588;10.836;2024-03-08T06:28:15;96460.94;;;3.56;69.15
56142;BME280;42018;48.588;10.836;2024-03-08T06:31:01;96468.22;;;2.88;71.79
56142;BME280;42018;48.588;10.836;2024-03-08T06:33:47;96466.31;;;2.96;72.33
56142;BME280;42018;48.588;10.836;2024-03-08T06:36:35;96461.94;;;3.43;70.25
56142;BME280;42018;48.588;10.836;2024-03-08T06:39:20;96455.34;;;3.52;69.93
56142;BME280;42018;48.588;10.836;2024-03-08T06:42:06;96458.53;;;3.43;70.32
56142;BME280;42018;48.588;10.836;2024-03-08T06:44:52;96462.53;;;3.57;69.90
56142;BME280;42018;48.588;10.836;2024-03-08T06:47:40;96456.47;;;3.21;71.27
56142;BME280;42018;48.588;10.836;2024-03-08T06:50:26;96454.72;;;3.15;72.01
56142;BME280;42018;48.588;10.836;2024-03-08T06:53:12;96453.94;;;3.26;71.78
56142;BME280;42018;48.588;10.836;2024-03-08T06:55:58;96459.59;;;3.00;72.52
56142;BME280;42018;48.588;10.836;2024-03-08T06:58:44;96458.94;;;3.16;72.32
56142;BME280;42018;48.588;10.836;2024-03-08T07:01:30;96458.31;;;2.91;72.55
56142;BME280;42018;48.588;10.836;2024-03-08T07:04:21;96463.19;;;3.29;71.32
56142;BME280;42018;48.588;10.836;2024-03-08T07:07:09;96464.53;;;2.78;73.02
56142;BME280;42018;48.588;10.836;2024-03-08T07:09:55;96459.88;;;3.33;71.45
56142;BME280;42018;48.588;10.836;2024-03-08T07:12:42;96452.38;;;3.37;70.74
56142;BME280;42018;48.588;10.836;2024-03-08T07:15:28;96458.31;;;3.68;70.17
56142;BME280;42018;48.588;10.836;2024-03-08T07:18:13;96453.88;;;3.56;70.63
56142;BME280;42018;48.588;10.836;2024-03-08T07:21:00;96453.59;;;3.11;71.87
56142;BME280;42018;48.588;10.836;2024-03-08T07:23:47;96450.69;;;3.43;71.24
56142;BME280;42018;48.588;10.836;2024-03-08T07:26:53;96452.56;;;3.12;71.25
56142;BME280;42018;48.588;10.836;2024-03-08T07:29:39;96452.97;;;2.85;72.98
56142;BME280;42018;48.588;10.836;2024-03-08T07:32:25;96442.97;;;3.06;72.88
56142;BME280;42018;48.588;10.836;2024-03-08T07:35:12;96441.56;;;2.92;73.78
56142;BME280;42018;48.588;10.836;2024-03-08T07:37:57;96435.03;;;3.12;72.91
56142;BME280;42018;48.588;10.836;2024-03-08T07:40:45;96435.75;;;3.31;72.05
56142;BME280;42018;48.588;10.836;2024-03-08T07:43:30;96436.41;;;3.15;72.16
56142;BME280;42018;48.588;10.836;2024-03-08T07:46:16;96434.38;;;3.29;72.74
56142;BME280;42018;48.588;10.836;2024-03-08T07:49:03;96433.72;;;3.45;71.94
56142;BME280;42018;48.588;10.836;2024-03-08T07:51:49;96439.81;;;3.16;72.37
56142;BME280;42018;48.588;10.836;2024-03-08T07:54:35;96434.97;;;3.31;72.40
56142;BME280;42018;48.588;10.836;2024-03-08T07:57:20;96436.53;;;3.20;71.09
56142;BME280;42018;48.588;10.836;2024-03-08T08:00:06;96435.16;;;3.29;71.23
56142;BME280;42018;48.588;10.836;2024-03-08T08:02:54;96438.69;;;3.23;70.91
56142;BME280;42018;48.588;10.836;2024-03-08T08:05:39;96428.13;;;3.53;71.07
56142;BME280;42018;48.588;10.836;2024-03-08T08:08:25;96419.25;;;3.78;70.15
56142;BME280;42018;48.588;10.836;2024-03-08T08:11:11;96417.41;;;3.78;69.81
56142;BME280;42018;48.588;10.836;2024-03-08T08:13:57;96417.09;;;3.40;70.25
56142;BME280;42018;48.588;10.836;2024-03-08T08:16:44;96418.81;;;3.46;71.51
56142;BME280;42018;48.588;10.836;2024-03-08T08:19:30;96410.47;;;3.60;71.31
56142;BME280;42018;48.588;10.836;2024-03-08T08:22:17;96408.94;;;4.00;70.32
56142;BME280;42018;48.588;10.836;2024-03-08T08:25:03;96398.94;;;3.73;71.05
56142;BME280;42018;48.588;10.836;2024-03-08T08:27:49;96405.47;;;3.35;71.59
56142;BME280;42018;48.588;10.836;2024-03-08T08:30:35;96406.00;;;3.02;72.04
56142;BME280;42018;48.588;10.836;2024-03-08T08:33:20;96403.00;;;2.87;72.38
56142;BME280;42018;48.588;10.836;2024-03-08T08:36:06;96409.53;;;3.08;72.07
56142;BME280;42018;48.588;10.836;2024-03-08T08:38:52;96404.22;;;3.50;71.50
56142;BME280;42018;48.588;10.836;2024-03-08T08:41:41;96403.31;;;3.32;72.29
56142;BME280;42018;48.588;10.836;2024-03-08T08:44:27;96398.75;;;3.51;71.39
56142;BME280;42018;48.588;10.836;2024-03-08T08:47:12;96394.41;;;3.33;70.91
56142;BME280;42018;48.588;10.836;2024-03-08T08:49:58;96392.59;;;3.46;70.87
56142;BME280;42018;48.588;10.836;2024-03-08T08:52:44;96394.28;;;3.52;70.89
56142;BME280;42018;48.588;10.836;2024-03-08T08:55:30;96392.47;;;3.41;70.51
56142;BME280;42018;48.588;10.836;2024-03-08T08:58:16;96384.28;;;3.25;71.07
56142;BME280;42018;48.588;10.836;2024-03-08T09:01:01;96384.06;;;3.39;71.07
56142;BME280;42018;48.588;10.836;2024-03-08T09:03:47;96380.53;;;3.45;71.57
56142;BME280;42018;48.588;10.836;2024-03-08T09:06:33;96383.72;;;3.47;70.63
56142;BME280;42018;48.588;10.836;2024-03-08T09:09:18;96388.28;;;3.40;72.25
56142;BME280;42018;48.588;10.836;2024-03-08T09:12:04;96366.03;;;3.66;70.76
56142;BME280;42018;48.588;10.836;2024-03-08T09:14:49;96370.78;;;3.80;70.91
56142;BME280;42018;48.588;10.836;2024-03-08T09:17:36;96367.22;;;4.39;69.25
56142;BME280;42018;48.588;10.836;2024-03-08T09:20:25;96365.59;;;4.66;67.91
56142;BME280;42018;48.588;10.836;2024-03-08T09:23:10;96358.53;;;4.67;68.58
56142;BME280;42018;48.588;10.836;2024-03-08T09:25:56;96356.44;;;4.69;67.29
56142;BME280;42018;48.588;10.836;2024-03-08T09:28:45;96360.88;;;4.51;67.61
56142;BME280;42018;48.588;10.836;2024-03-08T09:31:31;96353.59;;;4.70;67.96
56142;BME280;42018;48.588;10.836;2024-03-08T09:34:16;96353.22;;;4.95;66.65
56142;BME280;42018;48.588;10.836;2024-03-08T09:37:03;96347.41;;;5.10;66.27
56142;BME280;42018;48.588;10.836;2024-03-08T09:39:49;96344.06;;;4.98;67.01
56142;BME280;42018;48.588;10.836;2024-03-08T09:42:35;96333.88;;;5.57;66.87
56142;BME280;42018;48.588;10.836;2024-03-08T09:45:24;96334.38;;;5.76;64.82
56142;BME280;42018;48.588;10.836;2024-03-08T09:48:11;96336.88;;;5.66;66.21
56142;BME280;42018;48.588;10.836;2024-03-08T09:50:59;96334.56;;;5.69;65.23
56142;BME280;42018;48.588;10.836;2024-03-08T09:53:45;96333.38;;;5.99;65.33
56142;BME280;42018;48.588;10.836;2024-03-08T09:56:32;96329.50;;;5.63;65.30
56142;BME280;42018;48.588;10.836;2024-03-08T09:59:21;96328.13;;;5.82;65.15
56142;BME280;42018;48.588;10.836;2024-03-08T10:02:27;96323.16;;;6.03;62.89
56142;BME280;42018;48.588;10.836;2024-03-08T10:05:12;96318.06;;;5.96;63.24
56142;BME280;42018;48.588;10.836;2024-03-08T10:07:59;96321.59;;;6.56;63.82
56142;BME280;42018;48.588;10.836;2024-03-08T10:10:44;96318.41;;;6.27;62.23
56142;BME280;42018;48.588;10.836;2024-03-08T10:13:31;96314.41;;;6.78;62.06
56142;BME280;42018;48.588;10.836;2024-03-08T10:16:17;96300.94;;;6.75;62.10
56142;BME280;42018;48.588;10.836;2024-03-08T10:19:03;96305.41;;;6.74;61.36
56142;BME280;42018;48.588;10.836;2024-03-08T10:21:51;96304.75;;;6.89;61.20
56142;BME280;42018;48.588;10.836;2024-03-08T10:24:41;96299.47;;;6.89;60.56
56142;BME280;42018;48.588;10.836;2024-03-08T10:27:26;96297.97;;;6.98;61.57
56142;BME280;42018;48.588;10.836;2024-03-08T10:30:16;96293.72;;;6.92;61.59
56142;BME280;42018;48.588;10.836;2024-03-08T10:33:05;96294.56;;;7.03;59.77
56142;BME280;42018;48.588;10.836;2024-03-08T10:35:52;96286.06;;;7.33;60.27
56142;BME280;42018;48.588;10.836;2024-03-08T10:38:40;96285.00;;;7.97;59.32
56142;BME280;42018;48.588;10.836;2024-03-08T10:41:29;96284.78;;;8.08;57.77
56142;BME280;42018;48.588;10.836;2024-03-08T10:47:21;96280.34;;;8.34;56.41
56142;BME280;42018;48.588;10.836;2024-03-08T10:50:19;96279.63;;;8.65;56.74
56142;BME280;42018;48.588;10.836;2024-03-08T10:53:10;96279.34;;;8.92;55.20
56142;BME280;42018;48.588;10.836;2024-03-08T10:55:57;96279.88;;;8.63;57.33
56142;BME280;42018;48.588;10.836;2024-03-08T10:58:43;96274.31;;;8.75;56.38
56142;BME280;42018;48.588;10.836;2024-03-08T11:01:30;96273.78;;;8.68;55.86
56142;BME280;42018;48.588;10.836;2024-03-08T11:04:15;96271.94;;;8.99;56.94
56142;BME280;42018;48.588;10.836;2024-03-08T11:07:04;96271.16;;;8.98;55.13
56142;BME280;42018;48.588;10.836;2024-03-08T11:09:53;96258.44;;;9.10;54.55
56142;BME280;42018;48.588;10.836;2024-03-08T11:12:38;96264.81;;;8.99;55.15
56142;BME280;42018;48.588;10.836;2024-03-08T11:15:24;96250.47;;;9.31;54.50
56142;BME280;42018;48.588;10.836;2024-03-08T11:18:10;96247.41;;;8.73;54.83
56142;BME280;42018;48.588;10.836;2024-03-08T11:20:55;96245.00;;;8.92;54.45
56142;BME280;42018;48.588;10.836;2024-03-08T11:23:42;96240.16;;;9.40;54.52
56142;BME280;42018;48.588;10.836;2024-03-08T11:26:29;96228.19;;;9.57;52.53
56142;BME280;42018;48.588;10.836;2024-03-08T11:32:18;96220.81;;;9.44;54.00
56142;BME280;42018;48.588;10.836;2024-03-08T11:35:18;96222.34;;;9.61;53.60
56142;BME280;42018;48.588;10.836;2024-03-08T11:38:04;96211.88;;;9.90;52.50
56142;BME280;42018;48.588;10.836;2024-03-08T11:40:50;96222.16;;;9.96;52.41
56142;BME280;42018;48.588;10.836;2024-03-08T11:43:35;96213.75;;;9.89;52.14
56142;BME280;42018;48.588;10.836;2024-03-08T11:46:21;96221.38;;;9.31;52.82
56142;BME280;42018;48.588;10.836;2024-03-08T11:49:09;96215.38;;;9.05;54.06
56142;BME280;42018;48.588;10.836;2024-03-08T11:51:55;96203.50;;;9.72;53.18
56142;BME280;42018;48.588;10.836;2024-03-08T11:54:42;96200.66;;;9.58;52.15
56142;BME280;42018;48.588;10.836;2024-03-08T11:57:28;96202.88;;;9.31;55.63
56142;BME280;42018;48.588;10.836;2024-03-08T12:00:16;96194.88;;;9.51;53.10
56142;BME280;42018;48.588;10.836;2024-03-08T12:03:09;96186.22;;;9.85;53.12
56142;BME280;42018;48.588;10.836;2024-03-08T12:05:57;96184.47;;;10.10;51.67
56142;BME280;42018;48.588;10.836;2024-03-08T12:08:46;96175.16;;;10.17;51.80
56142;BME280;42018;48.588;10.836;2024-03-08T12:11:34;96167.94;;;10.33;50.85
56142;BME280;42018;48.588;10.836;2024-03-08T12:14:21;96166.63;;;10.60;51.20
56142;BME280;42018;48.588;10.836;2024-03-08T12:17:07;96158.44;;;10.61;50.32
56142;BME280;42018;48.588;10.836;2024-03-08T12:19:55;96161.47;;;10.49;50.63
56142;BME280;42018;48.588;10.836;2024-03-08T12:22:42;96159.69;;;10.40;50.86
56142;BME280;42018;48.588;10.836;2024-03-08T12:25:32;96156.09;;;9.81;52.10
56142;BME280;42018;48.588;10.836;2024-03-08T12:28:20;96155.41;;;10.04;52.11
56142;BME280;42018;48.588;10.836;2024-03-08T12:31:07;96148.16;;;10.54;51.18
56142;BME280;42018;48.588;10.836;2024-03-08T12:33:56;96142.91;;;10.49;50.05
56142;BME280;42018;48.588;10.836;2024-03-08T12:36:52;96142.25;;;10.63;49.96
56142;BME280;42018;48.588;10.836;2024-03-08T12:39:40;96144.84;;;10.68;48.79
56142;BME280;42018;48.588;10.836;2024-03-08T12:42:26;96143.97;;;10.48;49.36
56142;BME280;42018;48.588;10.836;2024-03-08T12:45:11;96133.78;;;10.31;48.70
56142;BME280;42018;48.588;10.836;2024-03-08T12:47:58;96134.09;;;10.25;49.22
56142;BME280;42018;48.588;10.836;2024-03-08T12:50:44;96122.59;;;10.69;48.49
56142;BME280;42018;48.588;10.836;2024-03-08T12:53:33;96118.53;;;10.76;48.23
56142;BME280;42018;48.588;10.836;2024-03-08T12:56:36;96115.66;;;10.73;47.78
56142;BME280;42018;48.588;10.836;2024-03-08T12:59:25;96118.09;;;10.93;47.06
56142;BME280;42018;48.588;10.836;2024-03-08T13:02:12;96110.63;;;10.95;48.43
56142;BME280;42018;48.588;10.836;2024-03-08T13:04:58;96114.56;;;10.74;47.45
56142;BME280;42018;48.588;10.836;2024-03-08T13:07:44;96103.63;;;10.81;48.61
56142;BME280;42018;48.588;10.836;2024-03-08T13:10:32;96110.63;;;10.95;48.04
56142;BME280;42018;48.588;10.836;2024-03-08T13:13:17;96099.97;;;11.43;46.57
56142;BME280;42018;48.588;10.836;2024-03-08T13:16:03;96096.88;;;11.17;47.34
56142;BME280;42018;48.588;10.836;2024-03-08T13:18:53;96095.97;;;11.03;47.39
56142;BME280;42018;48.588;10.836;2024-03-08T13:21:39;96089.72;;;10.94;46.25
56142;BME280;42018;48.588;10.836;2024-03-08T13:24:24;96082.44;;;10.81;48.19
56142;BME280;42018;48.588;10.836;2024-03-08T13:27:10;96079.41;;;10.92;47.74
56142;BME280;42018;48.588;10.836;2024-03-08T13:30:05;96072.72;;;11.38;46.41
56142;BME280;42018;48.588;10.836;2024-03-08T13:32:52;96078.53;;;11.40;46.11
56142;BME280;42018;48.588;10.836;2024-03-08T13:35:39;96068.94;;;10.82;45.76
56142;BME280;42018;48.588;10.836;2024-03-08T13:38:26;96059.91;;;10.83;47.76
56142;BME280;42018;48.588;10.836;2024-03-08T13:41:12;96064.97;;;10.79;46.90
56142;BME280;42018;48.588;10.836;2024-03-08T13:43:59;96047.53;;;11.16;47.04
56142;BME280;42018;48.588;10.836;2024-03-08T13:46:47;96052.84;;;11.16;45.98
56142;BME280;42018;48.588;10.836;2024-03-08T13:49:33;96040.47;;;11.12;45.55
56142;BME280;42018;48.588;10.836;2024-03-08T13:52:18;96039.09;;;11.14;46.65
56142;BME280;42018;48.588;10.836;2024-03-08T13:55:05;96038.25;;;10.76;46.46
56142;BME280;42018;48.588;10.836;2024-03-08T13:57:52;96040.31;;;11.22;46.75
56142;BME280;42018;48.588;10.836;2024-03-08T14:00:37;96033.88;;;11.28;45.94
56142;BME280;42018;48.588;10.836;2024-03-08T14:03:24;96034.88;;;11.32;45.24
56142;BME280;42018;48.588;10.836;2024-03-08T14:06:10;96021.75;;;11.60;44.71
56142;BME280;42018;48.588;10.836;2024-03-08T14:08:56;96026.66;;;11.66;46.16
56142;BME280;42018;48.588;10.836;2024-03-08T14:11:43;96019.03;;;11.46;45.65
56142;BME280;42018;48.588;10.836;2024-03-08T14:14:33;96017.34;;;11.69;45.47
56142;BME280;42018;48.588;10.836;2024-03-08T14:17:20;96009.91;;;11.71;44.98
56142;BME280;42018;48.588;10.836;2024-03-08T14:20:07;96013.59;;;11.56;45.84
56142;BME280;42018;48.588;10.836;2024-03-08T14:22:55;96007.13;;;11.06;44.39
56142;BME280;42018;48.588;10.836;2024-03-08T14:25:43;96004.13;;;11.12;45.27
56142;BME280;42018;48.588;10.836;2024-03-08T14:28:29;95996.81;;;11.04;45.78
56142;BME280;42018;48.588;10.836;2024-03-08T14:31:15;95997.41;;;11.01;46.21
56142;BME280;42018;48.588;10.836;2024-03-08T14:34:04;95994.28;;;10.75;47.29
56142;BME280;42018;48.588;10.836;2024-03-08T14:36:49;95992.13;;;10.77;46.11
56142;BME280;42018;48.588;10.836;2024-03-08T14:39:35;95981.63;;;11.10;45.23
56142;BME280;42018;48.588;10.836;2024-03-08T14:42:21;95985.06;;;11.29;44.70
56142;BME280;42018;48.588;10.836;2024-03-08T14:45:07;95988.22;;;11.31;44.37